Date,TemperatureHighF,TemperatureAvgF,TemperatureLowF,DewpointHighF,DewpointAvgF,DewpointLowF,HumidityHigh,HumidityAvg,HumidityLow,PressureMaxIn,PressureMinIn,WindSpeedMaxMPH,WindSpeedAvgMPH,GustSpeedMaxMPH,PrecipitationSumIn
2012-1-1,60,49,36,36,12,0,49,23,17,30.40,29.81,12,6,26,0.00
2012-1-2,45,35,27,6,0,-8,23,22,20,30.49,30.37,12,6,33,0.00
2012-1-3,48,31,17,7,-3,-13,30,23,19,30.55,30.19,5,2,9,0.00
2012-1-4,64,43,29,17,8,-1,32,24,15,30.22,30.08,7,3,13,0.00
2012-1-5,72,49,33,24,14,9,41,26,15,30.22,29.96,6,2,13,0.00
2012-1-6,73,54,38,36,21,11,51,29,16,29.96,29.81,7,3,15,0.00
2012-1-7,59,51,44,45,17,7,81,30,17,30.14,29.90,8,2,12,0.00
2012-1-8,50,46,42,18,11,5,36,24,19,30.22,30.14,7,3,11,0.00
2012-1-9,57,47,40,22,17,11,48,32,20,30.22,30.08,6,1,9,0.00
2012-1-10,53,44,37,42,21,9,84,45,18,30.11,29.66,6,3,13,0.91
2012-1-11,60,49,44,43,30,16,87,53,22,29.66,29.55,6,2,12,0.00
2012-1-12,43,30,24,18,3,-6,50,32,25,29.99,29.66,13,8,25,0.00
2012-1-13,46,29,20,6,-2,-8,33,25,19,30.14,29.96,8,3,17,0.00
2012-1-14,57,38,23,12,4,-8,36,25,17,30.31,29.96,13,4,24,0.00
2012-1-15,52,39,26,17,11,6,49,33,19,30.40,30.11,8,2,13,0.00
2012-1-16,65,58,46,44,31,16,46,36,28,30.11,29.81,10,5,15,0.00
2012-1-17,66,49,27,44,21,0,49,33,21,30.31,29.72,15,6,26,0.08
2012-1-18,47,30,19,7,3,0,48,33,19,30.34,30.02,6,2,9,0.00
2012-1-19,58,41,30,18,12,4,44,31,19,30.02,29.87,7,2,11,0.00
2012-1-20,41,36,32,33,19,9,75,50,32,29.99,29.75,8,3,10,0.00
2012-1-21,40,34,30,27,14,8,71,43,30,30.14,29.87,8,3,12,0.00
2012-1-22,61,46,35,57,43,27,90,87,72,29.99,29.51,6,2,9,0.98
2012-1-23,61,49,39,55,16,2,89,29,16,30.08,29.51,17,5,23,0.00
2012-1-24,60,44,31,16,9,0,31,24,17,30.25,30.08,6,2,8,0.00
2012-1-25,45,44,42,40,38,35,84,78,71,30.19,29.84,8,4,12,0.83
2012-1-26,49,45,40,43,35,25,89,68,46,29.87,29.69,8,2,10,0.04
2012-1-27,60,44,34,28,21,14,70,42,19,30.05,29.84,6,2,8,0.00
2012-1-28,57,42,32,27,9,-1,50,26,17,30.37,29.99,14,4,17,0.00
2012-1-29,66,45,29,17,6,-3,25,20,15,30.34,30.19,11,3,15,0.00
2012-1-30,69,52,36,23,13,4,30,21,15,30.22,30.08,9,4,15,0.00
2012-1-31,67,58,49,41,25,8,51,30,19,30.11,29.99,8,3,13,0.00
2012-2-1,72,59,49,64,44,18,90,62,22,30.17,30.02,6,1,9,0.00
2012-2-2,66,52,38,23,17,12,47,26,15,30.28,30.17,6,2,10,0.00
2012-2-3,57,50,45,54,35,15,90,63,26,30.25,30.02,5,2,8,0.87
2012-2-4,62,56,47,58,39,19,90,59,28,30.14,29.96,10,3,18,0.35
2012-2-5,55,46,41,20,18,15,42,33,26,30.31,30.14,9,5,15,0.00
2012-2-6,64,51,36,31,15,5,60,26,16,30.52,30.28,7,2,11,0.00
2012-2-7,60,44,31,20,15,11,50,33,17,31.05,30.40,6,1,8,0.00
2012-2-8,49,40,37,24,15,9,53,37,22,31.29,29.00,8,2,12,0.00
2012-2-9,42,38,36,20,16,12,51,40,30,29.20,29.18,4,0,6,0.00
2012-2-10,45,38,26,35,22,-1,78,54,31,29.20,29.20,10,3,17,0.12
2012-2-11,40,26,19,3,-4,-13,33,26,21,29.20,29.20,10,5,15,0.00
2012-2-12,50,29,14,9,-4,-14,31,24,19,29.20,29.20,7,2,9,0.00
2012-2-13,36,32,27,30,11,-6,78,45,22,29.20,29.20,7,2,10,0.00
2012-2-14,53,41,36,34,25,14,80,57,23,29.20,29.20,5,1,7,0.31
2012-2-15,49,45,39,46,41,27,90,84,62,29.20,29.20,7,1,10,0.51
2012-2-16,66,52,43,51,30,14,91,52,19,29.20,29.20,9,3,12,0.00
2012-2-17,56,46,40,26,20,14,54,35,21,29.20,27.21,5,1,8,0.00
2012-2-18,50,46,41,26,16,7,50,32,21,29.20,27.21,10,3,13,0.00
2012-2-19,62,45,34,22,13,4,49,29,16,27.21,27.21,10,3,12,0.04
2012-2-20,58,43,30,14,10,5,42,27,17,27.21,27.21,9,3,13,0.00
2012-2-21,69,57,46,22,15,7,29,19,15,27.21,27.21,11,4,18,0.00
2012-2-22,78,58,41,26,18,4,28,21,15,27.21,27.21,8,2,14,0.00
2012-2-23,83,64,48,31,24,13,47,23,14,27.21,27.21,13,5,17,0.00
2012-2-24,59,47,35,14,7,0,23,20,17,27.21,27.21,15,7,25,0.00
2012-2-25,63,42,31,16,5,-2,25,21,16,27.21,27.21,8,2,13,0.00
2012-2-26,69,51,33,23,11,2,31,21,15,27.21,27.21,11,3,17,0.00
2012-2-27,73,55,41,24,14,8,28,20,15,27.21,27.21,8,3,12,0.00
2012-2-28,70,57,44,57,22,6,71,29,17,27.21,27.21,10,4,16,0.00
2012-2-29,81,65,51,54,27,10,62,26,14,27.21,27.21,14,5,26,0.04
2012-3-1,78,60,38,33,17,2,34,19,15,27.21,27.21,9,3,13,0.00
2012-3-2,85,62,36,53,29,8,63,32,13,27.21,27.21,17,6,31,0.00
2012-3-3,61,45,33,20,11,0,47,28,16,27.21,27.21,14,3,20,0.00
2012-3-4,71,51,29,24,10,-2,30,19,15,27.21,27.21,16,4,25,0.00
2012-3-5,63,49,37,16,9,2,27,20,16,27.21,27.21,8,3,13,0.00
2012-3-6,78,58,41,26,16,4,26,19,15,27.21,27.21,12,5,20,0.00
2012-3-7,75,64,56,32,25,12,29,23,17,27.21,27.21,13,6,18,0.00
2012-3-8,67,52,38,58,36,18,77,56,25,27.21,27.21,12,4,17,1.42
2012-3-9,67,50,36,21,13,7,48,25,15,27.21,27.21,11,4,15,0.00
2012-3-10,68,50,35,22,12,4,31,22,15,27.21,27.21,7,2,10,0.00
2012-3-11,63,54,46,59,36,11,89,56,21,27.21,27.21,8,2,13,0.55
2012-3-12,84,70,62,58,40,25,82,43,14,27.21,27.21,9,4,19,0.00
2012-3-13,87,69,54,42,34,27,56,30,13,30.05,27.21,8,2,12,0.00
2012-3-14,90,74,64,61,43,32,80,39,15,30.11,29.99,10,3,15,0.00
2012-3-15,90,75,66,58,42,28,73,35,13,30.14,29.99,10,3,17,0.00
2012-3-16,83,70,63,60,47,36,82,47,19,30.14,29.99,9,2,12,0.55
2012-3-17,86,72,66,64,47,28,87,47,13,30.08,29.96,9,3,14,0.00
2012-3-18,83,72,67,53,43,35,59,37,19,30.08,29.96,9,4,15,0.00
2012-3-19,86,73,67,48,38,30,49,30,16,29.99,29.81,12,4,15,0.00
2012-3-20,79,71,64,43,36,32,46,29,20,29.90,29.78,12,4,14,0.00
2012-3-21,70,67,59,56,39,28,65,39,23,29.93,29.81,10,3,16,0.63
2012-3-22,75,62,55,51,37,22,84,46,16,30.05,29.87,7,2,8,0.20
2012-3-23,70,59,52,53,35,22,77,44,20,29.93,29.81,9,3,15,0.28
2012-3-24,82,65,51,44,31,21,72,35,14,29.93,29.84,10,4,15,0.04
2012-3-25,86,70,59,43,33,27,49,28,13,30.05,29.93,7,2,9,0.00
2012-3-26,84,68,57,57,38,27,77,39,14,30.14,30.02,6,1,8,0.00
2012-3-27,88,71,57,35,32,27,43,26,13,30.11,29.96,8,2,12,0.00
2012-3-28,92,74,62,43,34,26,48,26,12,30.05,29.90,8,1,12,0.00
2012-3-29,90,73,60,44,34,27,53,27,12,29.96,29.81,6,1,10,0.00
2012-3-30,89,72,61,43,37,32,49,30,15,29.84,29.69,6,2,11,0.00
2012-3-31,95,74,62,60,42,30,82,38,11,29.84,29.72,5,1,8,0.00
2012-4-1,95,77,65,57,41,31,71,31,12,29.78,29.60,7,2,12,0.00
2012-4-2,97,77,65,61,41,28,82,33,11,29.81,29.63,5,1,8,0.00
2012-4-3,86,71,63,51,42,35,57,36,18,29.90,29.78,5,1,9,0.00
2012-4-4,87,72,62,60,42,29,83,41,16,29.81,29.63,6,1,12,0.00
2012-4-5,78,62,57,51,40,28,71,46,18,29.93,29.63,6,1,11,0.16
2012-4-6,72,56,46,45,24,14,70,33,15,30.14,29.93,6,1,12,0.00
2012-4-7,79,60,43,40,25,16,51,29,15,30.22,30.08,5,0,9,0.00
2012-4-8,78,62,50,47,28,18,63,30,15,30.34,30.17,5,1,8,0.00
2012-4-9,87,63,48,38,29,20,62,32,13,30.17,30.02,5,1,8,0.00
2012-4-10,81,63,54,31,22,12,39,22,14,30.17,30.02,5,1,8,0.00
2012-4-11,75,57,45,26,15,8,31,19,15,30.25,30.11,5,1,8,0.00
2012-4-12,71,54,37,24,18,10,49,26,15,30.25,30.05,4,0,7,0.00
2012-4-13,80,63,49,38,26,17,36,25,15,30.08,29.96,6,0,12,0.00
2012-4-14,88,75,67,47,37,30,46,27,15,29.99,29.81,8,2,14,0.00
2012-4-15,82,71,59,46,37,30,62,31,19,29.87,29.66,8,3,17,0.79
2012-4-16,77,65,56,49,31,23,72,32,15,30.19,29.99,6,1,13,0.16
2012-4-17,71,59,52,50,36,21,79,46,17,30.31,30.19,4,1,7,0.00
2012-4-18,81,62,47,51,33,23,75,42,14,30.22,30.02,4,0,8,0.00
2012-4-19,85,66,51,44,30,22,64,31,13,30.02,29.78,5,1,9,0.00
2012-4-20,64,57,50,48,34,24,56,42,25,29.96,29.75,5,1,11,0.08
2012-4-21,73,57,48,30,24,18,48,30,16,29.99,29.90,6,1,11,0.00
2012-4-22,72,55,44,37,24,17,66,33,16,30.08,29.87,7,2,13,0.00
2012-4-23,74,55,42,29,22,14,52,30,15,30.14,29.96,8,1,13,0.00
2012-4-24,86,63,43,33,27,22,57,30,13,29.96,29.69,8,1,15,0.00
2012-4-25,90,72,58,42,34,26,38,26,15,29.69,29.57,8,2,13,0.00
2012-4-26,95,77,67,54,37,25,57,27,11,29.90,29.69,4,1,8,0.00
2012-4-27,70,63,58,35,27,17,37,25,18,30.02,29.78,6,2,13,0.04
2012-4-28,84,73,60,59,41,34,80,35,20,29.96,29.78,5,1,8,0.00
2012-4-29,93,76,67,47,39,30,45,28,12,30.02,29.93,6,1,11,0.00
2012-4-30,88,74,66,46,40,32,43,29,18,29.99,29.93,6,1,12,0.00
2012-5-1,95,79,69,60,43,34,66,33,14,29.99,29.81,6,1,13,0.00
2012-5-2,98,80,70,48,40,34,44,26,13,29.96,29.84,7,1,13,0.00
2012-5-3,86,75,69,50,45,38,48,35,20,30.02,29.90,4,0,8,0.00
2012-5-4,97,80,69,64,48,36,73,37,14,29.99,29.84,5,1,8,0.00
2012-5-5,99,82,71,57,45,38,53,31,13,29.93,29.81,5,1,9,0.00
2012-5-6,100,82,69,52,43,36,48,28,13,29.90,29.78,6,1,10,0.00
2012-5-7,88,76,68,60,44,38,68,35,18,29.90,29.81,5,1,9,1.18
2012-5-8,80,69,61,48,35,25,53,30,15,29.99,29.84,5,0,6,0.00
2012-5-9,86,68,54,36,28,19,46,25,13,29.99,29.87,6,1,13,0.00
2012-5-10,92,68,50,37,28,23,47,25,12,29.99,29.90,6,0,7,0.00
2012-5-11,82,67,54,38,31,26,48,28,14,30.08,29.93,4,0,7,0.00
2012-5-12,84,70,62,40,33,27,39,27,14,30.14,30.05,4,0,8,0.00
2012-5-13,93,72,59,41,32,23,49,25,11,30.08,29.99,6,1,8,0.00
2012-5-14,93,72,58,33,28,20,30,20,12,30.08,29.96,5,1,8,0.00
2012-5-15,96,71,54,36,28,19,38,22,11,30.05,29.93,5,0,8,0.00
2012-5-16,96,70,55,47,35,27,46,30,11,30.02,29.90,10,1,12,0.28
2012-5-17,100,74,58,36,28,22,32,20,10,30.02,29.93,4,1,7,0.00
2012-5-18,100,76,57,41,33,22,46,23,10,29.99,29.87,4,0,6,0.00
2012-5-19,98,78,67,46,38,31,43,25,11,30.02,29.90,4,0,8,0.00
2012-5-20,97,78,69,46,37,28,42,25,11,30.08,29.96,7,1,11,0.00
2012-5-21,92,74,64,49,34,20,50,26,12,30.08,29.99,6,1,8,0.00
2012-5-22,94,70,53,33,27,20,41,22,11,30.05,29.87,4,0,7,0.00
2012-5-23,99,73,55,39,29,20,45,22,10,29.87,29.69,4,1,7,0.00
2012-5-24,94,78,64,41,33,20,33,20,11,29.75,29.63,7,2,15,0.00
2012-5-25,100,84,74,47,40,33,35,23,10,29.96,29.75,4,1,8,0.00
2012-5-26,103,83,70,49,38,30,43,23,9,30.05,29.93,6,1,9,0.00
2012-5-27,101,82,68,49,39,30,46,24,10,30.02,29.87,4,1,8,0.00
2012-5-28,97,83,70,47,37,30,42,21,11,29.93,29.75,5,1,8,0.00
2012-5-29,96,82,71,41,34,30,33,19,11,29.87,29.75,4,0,8,0.00
2012-5-30,80,72,67,59,42,32,74,36,20,29.96,29.78,5,1,9,0.20
2012-5-31,86,73,63,54,41,27,64,35,19,29.81,29.66,7,1,9,0.00
2012-6-1,76,65,55,34,28,23,38,26,15,29.96,29.81,6,1,13,0.00
2012-6-2,84,69,56,40,33,27,47,29,14,29.96,29.81,6,0,10,0.00
2012-6-3,89,74,64,64,46,30,73,41,13,29.96,29.72,5,0,11,0.87
2012-6-4,88,78,70,67,53,40,83,48,21,29.84,29.69,5,0,8,0.00
2012-6-5,87,76,68,56,37,27,54,27,13,29.87,29.72,6,2,11,0.00
2012-6-6,84,73,61,35,30,26,35,21,14,29.99,29.87,5,1,8,0.00
2012-6-7,82,70,59,34,29,24,36,22,14,30.05,29.99,5,1,9,0.00
2012-6-8,88,73,58,36,31,28,41,24,13,30.05,29.90,4,1,6,0.00
2012-6-9,92,78,68,68,47,30,64,35,12,29.93,29.78,5,1,9,0.00
2012-6-10,84,77,73,67,63,60,79,63,48,29.87,29.81,4,0,6,0.00
2012-6-11,89,76,70,78,72,65,100,89,49,29.96,29.84,4,0,6,0.47
2012-6-12,87,76,68,71,61,48,100,65,39,30.11,29.96,5,0,7,0.00
2012-6-13,86,74,61,58,52,45,62,48,39,30.08,29.96,4,0,6,0.00
2012-6-14,90,76,61,62,56,51,74,52,38,30.02,29.90,5,0,8,0.00
2012-6-15,92,79,65,66,60,54,73,53,43,30.02,29.93,5,1,9,0.00
2012-6-16,94,82,71,68,63,58,82,54,40,30.11,29.96,6,1,9,0.00
2012-6-17,94,82,71,67,62,57,72,53,40,30.05,29.84,5,1,11,0.00
2012-6-18,94,82,71,66,61,57,67,49,37,29.90,29.84,7,2,12,0.00
2012-6-19,93,82,73,66,61,55,69,50,40,29.99,29.90,6,2,10,0.00
2012-6-20,95,82,69,67,60,55,70,49,37,30.05,29.96,7,1,11,0.00
2012-6-21,94,81,69,66,61,55,69,51,38,30.05,29.90,6,0,8,0.00
2012-6-22,95,82,73,64,60,54,62,48,37,29.99,29.87,5,1,8,0.00
2012-6-23,97,82,69,66,58,50,55,45,37,29.99,29.87,5,1,8,0.00
2012-6-24,102,84,67,70,60,52,62,45,36,29.96,29.84,4,0,8,0.00
2012-6-25,108,88,72,74,62,52,54,43,35,29.87,29.75,6,1,8,0.00
2012-6-26,93,82,69,64,55,46,46,41,38,29.90,29.81,5,1,9,0.00
2012-6-27,99,78,60,68,53,44,54,43,36,29.96,29.87,4,0,8,0.00
2012-6-28,110,90,68,75,62,49,53,41,34,29.99,29.87,7,1,11,0.00
2012-6-29,108,92,75,74,64,54,50,41,34,29.96,29.81,7,1,10,0.00
2012-6-30,107,92,76,74,65,57,55,42,35,29.90,29.78,6,1,12,0.00
2012-7-1,105,91,77,72,65,58,62,44,35,29.96,29.87,5,0,10,0.00
2012-7-2,105,89,76,71,64,58,57,44,35,30.02,29.87,6,1,10,0.00
2012-7-3,100,86,74,70,64,60,62,49,36,29.99,29.84,8,0,12,0.00
2012-7-4,103,89,74,70,64,58,64,45,35,29.96,29.84,6,0,9,0.00
2012-7-5,105,91,78,72,64,58,52,41,35,29.99,29.87,6,0,11,0.00
2012-7-6,108,91,78,74,64,57,50,41,34,29.96,29.87,9,0,12,0.00
2012-7-7,102,89,78,71,65,58,61,45,36,29.96,29.87,5,0,8,0.00
2012-7-8,100,84,74,70,62,58,69,50,36,29.99,29.84,8,1,13,0.00
2012-7-9,92,80,74,76,66,61,95,64,40,29.99,29.87,7,0,10,0.16
2012-7-10,87,80,76,80,70,62,100,75,46,29.96,29.87,7,0,11,0.12
2012-7-11,89,80,74,74,65,58,96,63,44,29.99,29.90,7,1,13,0.00
2012-7-12,89,80,72,66,63,60,78,56,44,29.96,29.93,7,1,9,0.00
2012-7-13,88,80,73,70,64,61,81,58,44,30.02,29.93,5,0,8,0.00
2012-7-14,83,78,74,81,71,60,100,80,53,30.05,29.96,4,0,6,0.47
2012-7-15,86,80,76,85,72,64,100,80,49,30.08,29.96,4,0,6,0.00
2012-7-16,90,81,76,81,70,65,100,72,45,30.05,29.90,6,0,8,0.00
2012-7-17,94,85,76,76,68,62,89,58,40,29.96,29.84,6,1,11,0.00
2012-7-18,101,88,78,70,67,64,73,51,36,29.96,29.81,7,1,12,0.00
2012-7-19,104,88,77,79,69,64,100,59,35,29.99,29.81,8,2,13,0.43
2012-7-20,95,84,76,86,70,58,100,68,37,29.96,29.84,5,1,8,0.00
2012-7-21,91,81,74,65,62,58,67,52,41,30.02,29.93,6,2,8,0.00
2012-7-22,96,84,73,68,64,59,67,53,37,30.08,29.99,4,0,8,0.00
2012-7-23,96,86,78,71,66,60,74,53,40,30.11,29.99,6,1,12,0.00
2012-7-24,100,88,76,70,65,61,65,47,36,30.05,29.87,8,1,12,0.00
2012-7-25,101,89,78,71,65,61,58,46,36,29.93,29.75,7,2,13,0.00
2012-7-26,86,83,80,64,62,60,53,50,46,29.84,29.75,7,1,10,0.00
2012-7-27,88,83,80,71,68,64,71,61,47,29.93,29.84,3,0,6,0.00
2012-7-28,91,82,75,78,65,58,100,61,38,30.05,29.93,4,0,6,0.00
2012-7-29,90,80,71,66,63,59,83,57,41,30.08,29.87,4,0,8,0.00
2012-7-30,103,85,74,70,64,61,71,51,35,29.90,29.75,7,1,12,0.00
2012-7-31,89,83,77,78,69,61,84,64,46,29.93,29.84,4,0,7,0.04
2012-8-1,94,84,77,75,68,62,86,62,40,29.90,29.78,4,0,6,0.00
2012-8-2,95,84,75,81,69,65,100,63,40,29.84,29.72,6,1,13,0.12
2012-8-3,99,88,79,71,67,64,69,51,37,29.81,29.69,6,1,8,0.00
2012-8-4,98,87,79,71,67,65,66,52,39,29.93,29.78,5,1,8,0.00
2012-8-5,91,84,77,66,63,59,58,50,41,30.08,29.99,4,0,5,0.00
2012-8-6,93,82,72,64,58,52,59,45,37,30.08,29.93,5,1,10,0.00
2012-8-7,97,82,68,66,58,50,57,44,37,29.99,29.87,6,1,9,0.00
2012-8-8,98,83,69,67,59,53,60,45,37,29.96,29.84,6,0,9,0.00
2012-8-9,99,83,70,68,59,53,59,45,36,29.87,29.72,6,1,10,0.00
2012-8-10,91,81,72,62,56,47,49,43,38,29.93,29.75,6,2,15,0.00
2012-8-11,88,76,64,60,52,46,54,44,39,30.02,29.90,6,1,10,0.00
2012-8-12,90,76,63,61,54,48,62,47,38,30.02,29.87,5,0,9,0.00
2012-8-13,93,79,69,65,57,52,63,48,38,29.93,29.78,7,2,12,0.00
2012-8-14,85,74,66,58,55,52,65,51,39,29.99,29.87,6,1,8,0.00
2012-8-15,93,79,68,64,57,54,62,49,37,29.99,29.84,6,1,11,0.00
2012-8-16,105,84,75,72,62,58,61,49,35,29.99,29.78,7,1,13,0.00
2012-8-17,78,74,69,74,63,56,100,71,48,30.02,29.87,4,0,6,0.31
2012-8-18,86,72,64,64,54,49,87,55,39,29.96,29.84,4,0,6,0.00
2012-8-19,91,70,61,72,59,50,100,71,38,29.93,29.87,7,0,9,0.24
2012-8-20,87,72,63,70,58,49,100,66,39,29.96,29.90,6,0,8,0.00
2012-8-21,96,74,60,65,54,49,72,51,37,30.02,29.96,5,0,9,0.00
2012-8-22,99,80,66,68,55,47,53,43,36,30.08,29.96,6,1,10,0.00
2012-8-23,101,81,66,69,56,47,54,43,36,30.08,29.93,6,1,12,0.00
2012-8-24,96,80,68,65,55,49,54,44,37,30.02,29.93,6,1,10,0.00
2012-8-25,78,75,72,72,63,52,85,66,46,29.99,29.90,5,0,8,0.04
2012-8-26,88,80,74,72,66,59,91,66,45,30.05,29.90,5,1,11,0.00
2012-8-27,89,80,74,82,68,61,100,70,45,30.02,29.96,5,0,8,0.43
2012-8-28,90,80,70,61,58,50,66,48,38,30.05,29.90,6,2,10,0.00
2012-8-29,91,80,68,62,55,47,49,42,38,29.96,29.84,7,2,10,0.00
2012-8-30,93,80,72,70,58,50,79,48,40,29.93,29.84,6,2,11,0.04
2012-8-31,83,79,77,83,79,70,100,100,85,29.90,29.78,6,2,13,1.85
2012-9-1,86,80,76,85,72,63,100,80,53,29.90,29.75,10,2,13,0.04
2012-9-2,86,79,76,73,67,62,88,68,47,29.87,29.78,7,2,13,0.00
2012-9-3,92,81,73,73,67,63,92,64,43,29.87,29.78,7,1,10,0.00
2012-9-4,92,82,73,73,66,63,88,63,43,29.90,29.78,4,0,8,0.00
2012-9-5,82,79,78,71,68,63,74,69,53,29.81,29.78,3,0,4,0.00
2012-9-6,89,79,72,75,64,55,93,63,45,29.96,29.84,7,2,9,0.12
2012-9-7,92,81,72,75,69,62,100,72,45,29.87,29.66,6,1,8,0.87
2012-9-8,75,69,60,75,57,44,100,70,42,29.99,29.81,5,1,8,0.04
2012-9-9,82,68,57,56,50,44,74,54,40,30.08,29.96,5,1,9,0.00
2012-9-10,78,68,57,54,49,44,67,52,41,30.17,30.05,4,0,6,0.00
2012-9-11,83,70,59,58,52,48,72,54,40,30.17,30.05,4,0,7,0.00
2012-9-12,84,72,65,59,53,49,65,51,40,30.17,30.08,5,1,12,0.00
2012-9-13,84,74,66,61,57,49,70,56,45,30.17,30.08,4,0,8,0.00
2012-9-14,73,69,65,60,56,52,74,62,50,30.22,30.14,4,1,6,0.04
2012-9-15,68,66,65,68,62,54,100,87,67,30.22,30.08,3,0,4,0.47
2012-9-16,77,72,68,77,70,63,100,93,67,30.08,29.93,2,0,4,0.16
2012-9-17,77,72,70,76,68,59,100,86,57,29.96,29.75,2,0,5,0.00
2012-9-18,71,65,56,69,48,37,96,56,43,30.05,29.75,7,2,12,0.00
2012-9-19,74,62,48,50,44,38,74,54,42,30.17,30.02,6,0,8,0.00
2012-9-20,83,69,58,58,49,42,62,50,40,30.02,29.90,5,1,10,0.00
2012-9-21,79,70,62,77,58,50,100,68,48,30.02,29.78,6,1,10,0.43
2012-9-22,80,68,56,58,49,38,71,52,41,30.17,29.87,6,1,10,0.00
2012-9-23,70,59,49,47,39,31,55,48,43,30.28,30.17,5,1,8,0.00
2012-9-24,72,61,50,48,43,37,64,52,42,30.22,29.96,4,0,8,0.00
2012-9-25,90,76,64,63,56,46,65,51,39,29.96,29.84,6,1,13,0.00
2012-9-26,86,74,69,71,62,53,100,69,45,30.05,29.90,6,1,10,0.24
2012-9-27,80,74,69,78,66,59,100,81,50,30.11,30.02,4,0,4,0.00
2012-9-28,79,72,68,79,69,62,100,90,69,30.11,29.99,2,0,5,0.67
2012-9-29,74,66,60,62,49,45,80,54,42,30.08,29.93,4,1,8,0.00
2012-9-30,68,64,59,56,51,46,73,63,54,29.93,29.78,4,0,5,0.00
2012-10-1,70,63,58,55,45,40,73,53,43,29.78,29.66,6,2,11,0.00
2012-10-2,74,62,50,49,44,38,67,52,42,29.90,29.72,5,0,9,0.00
2012-10-3,77,66,58,55,50,45,71,56,44,30.08,29.87,5,0,8,0.00
2012-10-4,82,69,59,58,51,47,73,55,40,30.19,30.08,4,0,7,0.00
2012-10-5,65,59,50,53,50,47,100,74,58,30.17,29.96,6,1,7,0.28
2012-10-6,55,48,44,50,38,31,100,70,44,30.25,30.14,6,1,8,0.44
2012-10-7,59,50,42,38,34,31,70,56,43,30.25,30.14,4,0,6,0.00
2012-10-8,62,52,45,42,38,34,75,59,45,30.25,30.08,6,0,8,0.04
2012-10-9,67,56,44,44,40,34,73,57,43,30.11,29.93,6,1,11,0.00
2012-10-10,65,59,49,47,40,33,63,51,41,30.25,29.99,5,2,8,0.00
2012-10-11,57,54,48,44,39,31,65,57,52,30.25,30.14,3,0,5,0.00
2012-10-12,63,59,56,63,55,44,100,87,64,30.28,30.14,3,0,4,0.39
2012-10-13,78,69,62,77,62,57,100,82,56,30.19,29.84,6,1,13,0.00
2012-10-14,74,68,59,70,58,46,100,73,47,29.96,29.72,11,3,24,0.63
2012-10-15,74,62,51,52,47,44,82,59,42,30.02,29.90,7,0,8,0.00
2012-10-16,78,64,54,55,48,43,79,57,41,29.93,29.69,8,1,16,0.00
2012-10-17,70,64,60,69,55,47,100,74,58,29.72,29.43,8,2,22,0.24
2012-10-18,65,57,50,60,43,32,100,63,41,29.78,29.63,10,2,17,0.00
2012-10-19,55,53,51,35,33,31,52,46,44,29.66,29.66,8,3,12,0.00
2012-10-27,47,44,41,27,25,23,49,47,45,30.17,30.11,4,0,5,0.00
2012-10-28,59,46,36,36,27,22,57,49,43,30.19,30.11,5,1,8,0.00
2012-10-29,59,47,37,36,28,22,57,48,43,30.28,30.08,5,1,8,0.00
2012-10-30,64,50,36,41,30,21,55,46,42,30.08,29.87,7,1,12,0.00
2012-10-31,67,54,41,43,33,23,52,45,41,29.96,29.90,6,1,11,0.00
2012-11-1,69,55,39,46,35,25,59,47,41,30.05,29.90,6,1,8,0.00
2012-11-2,70,58,47,47,38,31,62,47,43,29.99,29.90,5,1,8,0.00
2012-11-3,76,58,46,50,37,29,55,46,41,30.11,29.93,10,2,17,0.00
2012-11-4,61,48,39,38,31,26,66,52,42,30.19,30.11,5,1,6,0.00
2012-11-5,50,46,43,48,37,28,100,71,55,30.11,29.96,4,0,6,0.12
2012-11-6,54,49,42,51,42,34,100,79,56,30.05,29.93,5,1,9,0.00
2012-11-7,58,46,37,38,31,24,81,57,43,30.14,29.96,7,1,12,0.00
2012-11-8,60,46,33,38,32,24,76,57,43,30.22,30.08,6,1,11,0.00
2012-11-9,71,57,44,48,40,32,65,53,43,30.11,29.99,8,2,15,0.00
2012-11-10,72,62,52,51,44,36,63,52,45,30.11,29.99,8,3,13,0.00
2012-11-11,67,62,56,67,52,43,100,71,51,30.05,29.84,9,3,15,1.34
2012-11-12,56,42,32,55,30,19,100,66,45,30.43,29.99,8,2,14,0.04
2012-11-13,53,39,30,31,25,19,72,56,44,30.49,30.37,6,1,8,0.00
2012-11-14,52,40,32,31,24,20,67,53,44,30.43,30.31,6,1,9,0.00
2012-11-15,56,41,29,34,26,20,74,56,43,30.34,30.28,4,0,6,0.00
2012-11-16,58,44,32,36,27,21,67,52,43,30.43,30.34,7,1,9,0.00
2012-11-17,60,45,33,38,27,20,59,49,43,30.46,30.34,5,0,8,0.00
2012-11-18,63,46,32,39,30,22,70,54,42,30.37,30.25,4,0,8,0.00
2012-11-19,61,52,41,39,35,28,66,53,45,30.28,30.11,0,0,4,0.00
2012-11-20,70,57,45,46,39,33,68,52,43,30.14,30.02,9,1,13,0.00
2012-11-21,68,55,44,46,39,34,71,56,43,30.25,30.14,6,0,8,0.00
2012-11-22,68,56,46,48,41,36,79,58,43,30.17,30.02,7,2,12,0.00
2012-11-23,58,49,34,52,31,16,81,52,43,30.34,30.08,11,4,18,0.04
2012-11-24,47,36,25,27,19,10,58,50,45,30.34,30.08,6,1,8,0.00
2012-11-25,62,46,30,39,27,16,59,48,42,30.08,29.87,7,2,11,0.00
2012-11-26,50,44,39,42,31,26,78,60,48,30.25,29.96,9,3,13,0.04
2012-11-27,47,37,30,33,22,16,75,55,45,30.37,30.25,8,2,11,0.00
2012-11-28,54,39,27,33,25,17,74,58,44,30.43,30.28,5,0,8,0.00
2012-11-29,58,45,35,36,29,25,67,54,43,30.31,30.14,7,2,13,0.00
2012-11-30,64,52,40,42,34,25,59,51,44,30.17,30.08,6,2,9,0.00
2012-12-1,69,61,54,48,44,40,62,54,46,30.14,29.99,8,3,13,0.00
2012-12-3,71,67,63,68,54,47,100,63,51,30.05,29.96,8,3,13,0.00
2012-12-4,67,60,48,65,56,42,100,90,60,30.25,29.99,7,2,12,0.51
2012-12-5,60,50,40,42,33,29,78,53,43,30.31,30.08,8,2,11,0.00
2012-12-6,60,54,47,52,38,29,75,55,45,30.11,29.90,4,1,6,0.00
2012-12-7,68,62,58,61,50,44,95,69,49,29.90,29.78,6,1,9,0.00
2012-12-8,62,58,54,56,47,43,90,68,51,29.90,29.81,7,1,8,0.08
2012-12-9,72,60,51,72,60,46,100,99,88,29.87,29.66,14,2,20,0.94
2012-12-10,51,34,24,48,23,17,87,63,52,30.08,29.84,9,4,15,0.00
2012-12-11,41,31,21,31,20,17,91,66,47,30.22,30.08,6,1,8,0.00
2012-12-12,49,35,25,31,22,18,81,60,45,30.34,30.19,5,1,8,0.00
2012-12-13,52,39,29,31,25,18,75,57,44,30.34,30.19,6,1,8,0.00
2012-12-14,54,44,33,35,28,21,68,54,44,30.22,29.96,6,2,9,0.00
2012-12-15,63,58,48,61,52,35,100,82,61,29.96,29.69,8,4,15,0.04
2012-12-16,62,54,47,61,45,36,100,74,54,29.75,29.63,5,1,9,0.00
2012-12-17,50,46,37,49,38,30,100,77,54,29.81,29.60,9,2,14,0.00
2012-12-18,59,46,33,52,34,30,100,67,45,29.84,29.72,7,1,12,0.00
2012-12-19,61,53,43,50,42,33,95,67,51,29.90,29.51,10,2,20,0.12
2012-12-20,64,40,31,61,25,15,95,57,48,30.11,29.43,17,8,29,0.39
2012-12-21,48,35,27,27,18,10,52,48,45,30.28,30.11,11,4,18,0.00
2012-12-22,54,40,25,32,21,9,50,47,44,30.28,29.99,6,2,10,0.00
2012-12-23,64,52,43,45,34,23,70,50,44,29.99,29.78,6,2,9,0.00
2012-12-24,54,47,33,46,32,17,79,57,44,29.99,29.75,9,2,11,0.00
2012-12-25,35,31,26,32,19,14,93,61,51,30.11,29.72,14,6,22,0.00
2012-12-26,35,31,25,35,22,14,100,70,56,30.14,29.72,13,5,17,0.00
2012-12-27,37,29,21,23,18,12,74,63,53,30.17,30.02,6,1,8,0.00
2012-12-28,38,36,32,38,31,23,100,84,69,30.02,29.81,5,0,6,0.24
2012-12-29,37,32,23,37,24,14,100,75,56,30.34,29.93,10,3,15,0.04
2012-12-30,39,30,20,27,19,14,78,64,50,30.46,30.25,6,1,10,0.04
2012-12-31,41,37,32,40,31,20,100,80,61,30.28,29.99,4,0,7,0.55
2013-1-1,41,39,31,41,39,31,100,100,100,30.19,30.02,3,0,5,0.04